< < Back
Terminal Aerodrome Forecast


Current Version              Previous Versions:   1  2  3  4  5  6  7  8  9  

Terminal Aerodrome Forecast

284
FTUS42 KFFC 031740
TAFCSG
TAF
KCSG 031740Z 0318/0418 29010KT 5SM -TSRA BKN030CB
     FM032100 28010KT P6SM VCSH BKN045
     FM032300 30006KT P6SM BKN060
     FM040300 32006KT P6SM SCT070
     FM041400 32011G18KT P6SM SCT045=



Latest METAR

967
SAUS70 KWBC 041900 RRA
MTRCSG
METAR KCSG 041851Z 29011G15KT 10SM SCT060 22/06 A2978 RMK AO2 SLP080
T02220056


USA.gov is the U.S. government's official web portal to all federal, state and local government web resources and services.